createdAt,value
2018-06-25T00:00:43.699Z,5.40
2018-06-25T00:03:12.708Z,5.60
2018-06-25T00:05:41.051Z,7.23
2018-06-25T00:08:09.460Z,6.70
2018-06-25T00:10:37.776Z,6.50
2018-06-25T00:13:06.604Z,6.70
2018-06-25T00:15:36.129Z,5.73
2018-06-25T00:18:04.847Z,6.73
2018-06-25T00:20:33.216Z,6.17
2018-06-25T00:23:01.513Z,6.73
2018-06-25T00:25:29.921Z,8.20
2018-06-25T00:27:58.565Z,8.13
2018-06-25T00:30:26.896Z,8.37
2018-06-25T00:32:55.231Z,9.60
2018-06-25T00:35:23.558Z,8.53
2018-06-25T00:37:52.565Z,10.13
2018-06-25T00:40:20.900Z,9.43
2018-06-25T00:42:49.765Z,8.50
2018-06-25T00:45:18.108Z,8.93
2018-06-25T00:47:46.443Z,9.77
2018-06-25T00:50:14.797Z,9.97
2018-06-25T00:52:43.082Z,10.23
2018-06-25T00:55:11.420Z,11.37
2018-06-25T00:57:39.817Z,10.30
2018-06-25T01:00:08.168Z,8.20
2018-06-25T01:02:36.511Z,9.03
2018-06-25T01:05:04.893Z,9.87
2018-06-25T01:07:33.197Z,8.80
2018-06-25T01:10:01.552Z,7.67
2018-06-25T01:12:29.862Z,7.43
2018-06-25T01:14:58.220Z,9.20
2018-06-25T01:17:26.513Z,7.73
2018-06-25T01:19:54.860Z,7.10
2018-06-25T01:22:23.201Z,8.50
2018-06-25T01:24:51.582Z,9.27
2018-06-25T01:27:19.883Z,7.80
2018-06-25T01:29:48.215Z,8.00
2018-06-25T01:32:16.543Z,8.60
2018-06-25T01:34:45.750Z,8.83
2018-06-25T01:37:14.143Z,9.47
2018-06-25T01:39:42.465Z,9.80
2018-06-25T01:42:11.577Z,9.93
2018-06-25T01:44:39.922Z,8.97
2018-06-25T01:47:08.229Z,11.87
2018-06-25T01:49:36.572Z,11.63
2018-06-25T01:52:04.881Z,10.93
2018-06-25T01:54:33.260Z,10.17
2018-06-25T01:57:02.053Z,9.13
2018-06-25T01:59:30.412Z,10.30
2018-06-25T02:01:58.717Z,9.73
2018-06-25T02:04:27.064Z,9.40
2018-06-25T02:06:55.396Z,10.33
2018-06-25T02:09:23.755Z,10.90
2018-06-25T02:11:52.039Z,11.30
2018-06-25T02:14:20.545Z,11.57
2018-06-25T02:16:48.823Z,13.23
2018-06-25T02:19:17.148Z,15.27
2018-06-25T02:21:45.498Z,11.23
2018-06-25T02:24:14.000Z,13.47
2018-06-25T02:26:42.286Z,10.13
2018-06-25T02:29:10.614Z,12.00
2018-06-25T02:31:38.942Z,11.23
2018-06-25T02:34:07.214Z,10.73
2018-06-25T02:36:35.558Z,11.00
2018-06-25T02:39:04.964Z,13.13
2018-06-25T02:41:33.299Z,11.57
2018-06-25T02:44:01.587Z,10.80
2018-06-25T02:46:29.899Z,9.77
2018-06-25T02:48:58.186Z,11.03
2018-06-25T02:51:27.071Z,11.73
2018-06-25T02:53:55.360Z,11.10
2018-06-25T02:56:23.964Z,10.07
2018-06-25T02:58:52.250Z,10.43
2018-06-25T03:01:20.547Z,10.23
2018-06-25T03:03:48.953Z,10.27
2018-06-25T03:06:17.577Z,11.43
2018-06-25T03:08:45.870Z,10.73
2018-06-25T03:11:14.322Z,9.77
2018-06-25T03:13:42.581Z,9.83
2018-06-25T03:16:10.890Z,9.87
2018-06-25T03:18:39.184Z,11.73
2018-06-25T03:21:07.531Z,11.00
2018-06-25T03:23:36.626Z,9.57
2018-06-25T03:26:04.986Z,9.90
2018-06-25T03:28:33.255Z,10.07
2018-06-25T03:31:01.595Z,10.50
2018-06-25T03:33:29.872Z,10.03
2018-06-25T03:35:58.201Z,13.23
2018-06-25T03:38:26.529Z,11.37
2018-06-25T03:40:54.839Z,11.27
2018-06-25T03:43:23.126Z,14.77
2018-06-25T03:45:51.483Z,12.03
2018-06-25T03:48:20.127Z,12.17
2018-06-25T03:50:48.471Z,12.27
2018-06-25T03:53:16.762Z,11.90
2018-06-25T03:55:45.058Z,12.80
2018-06-25T03:58:13.340Z,15.37
2018-06-25T04:00:42.018Z,11.57
2018-06-25T04:03:10.915Z,12.43
2018-06-25T04:05:39.302Z,11.43
2018-06-25T04:08:07.839Z,11.70
2018-06-25T04:10:36.141Z,11.63
2018-06-25T04:13:04.494Z,11.07
2018-06-25T04:15:32.894Z,14.67
2018-06-25T04:18:01.214Z,11.27
2018-06-25T04:20:29.541Z,10.00
2018-06-25T04:22:57.870Z,11.60
2018-06-25T04:25:26.194Z,12.57
2018-06-25T04:27:54.547Z,11.70
2018-06-25T04:30:23.471Z,11.97
2018-06-25T04:32:52.651Z,13.50
2018-06-25T04:35:20.998Z,10.43
2018-06-25T04:37:49.323Z,10.70
2018-06-25T04:40:17.654Z,10.83
2018-06-25T04:42:46.154Z,8.60
2018-06-25T04:45:14.467Z,8.30
2018-06-25T04:47:42.773Z,9.53
2018-06-25T04:50:11.083Z,8.63
2018-06-25T04:52:39.386Z,8.97
2018-06-25T04:55:07.705Z,9.40
2018-06-25T04:57:36.010Z,11.60
2018-06-25T05:00:04.326Z,9.47
2018-06-25T05:02:32.649Z,7.57
2018-06-25T05:05:00.914Z,7.60
2018-06-25T05:07:29.461Z,9.27
2018-06-25T05:09:57.970Z,9.10
2018-06-25T05:12:26.373Z,10.33
2018-06-25T05:14:54.658Z,6.90
2018-06-25T05:17:22.968Z,7.97
2018-06-25T05:19:51.259Z,7.77
2018-06-25T05:22:25.160Z,10.37
2018-06-25T05:24:54.727Z,6.53
2018-06-25T05:27:26.081Z,8.07
2018-06-25T05:29:54.356Z,8.03
2018-06-25T05:32:22.708Z,9.70
2018-06-25T05:34:51.051Z,24.17
2018-06-25T05:37:19.483Z,7.17
2018-06-25T05:39:47.986Z,5.73
2018-06-25T05:42:21.410Z,5.70
2018-06-25T05:44:51.402Z,6.87
2018-06-25T05:47:21.130Z,8.50
2018-06-25T05:49:49.550Z,24.50
2018-06-25T05:52:20.917Z,13.13
2018-06-25T05:54:49.255Z,7.50
2018-06-25T05:57:17.706Z,10.63
2018-06-25T05:59:46.018Z,17.37
2018-06-25T06:02:14.719Z,11.77
2018-06-25T06:04:43.113Z,9.37
2018-06-25T06:07:11.455Z,9.70
2018-06-25T06:09:39.851Z,12.43
2018-06-25T06:12:08.160Z,9.13
2018-06-25T06:14:36.474Z,10.17
2018-06-25T06:17:04.850Z,10.10
2018-06-25T06:19:33.121Z,8.80
2018-06-25T06:22:01.515Z,8.07
2018-06-25T06:24:30.443Z,10.73
2018-06-25T06:26:58.690Z,8.27
2018-06-25T06:29:26.998Z,8.60
2018-06-25T06:31:55.491Z,9.80
2018-06-25T06:34:23.806Z,9.27
2018-06-25T06:36:52.222Z,8.60
2018-06-25T06:39:20.499Z,7.13
2018-06-25T06:41:48.856Z,8.77
2018-06-25T06:44:17.321Z,10.63
2018-06-25T06:46:45.674Z,6.87
2018-06-25T06:49:13.968Z,10.13
2018-06-25T06:51:42.342Z,8.23
2018-06-25T06:54:10.620Z,9.03
2018-06-25T06:56:39.045Z,9.17
2018-06-25T06:59:07.306Z,9.70
2018-06-25T07:01:35.610Z,8.10
2018-06-25T07:04:03.914Z,12.10
2018-06-25T07:06:32.306Z,12.93
2018-06-25T07:09:00.653Z,10.70
2018-06-25T07:11:28.987Z,8.50
2018-06-25T07:13:57.338Z,9.77
2018-06-25T07:16:25.642Z,9.80
2018-06-25T07:18:54.170Z,11.73
2018-06-25T07:21:22.498Z,10.37
2018-06-25T07:23:50.837Z,9.67
2018-06-25T07:26:21.982Z,11.60
2018-06-25T07:28:50.311Z,9.47
2018-06-25T07:31:18.638Z,10.27
2018-06-25T07:33:47.020Z,9.00
2018-06-25T07:36:15.299Z,9.10
2018-06-25T07:38:44.070Z,11.73
2018-06-25T07:41:12.414Z,11.50
2018-06-25T07:43:40.751Z,10.97
2018-06-25T07:46:09.038Z,10.80
2018-06-25T07:48:37.674Z,13.77
2018-06-25T07:51:05.982Z,10.03
2018-06-25T07:53:35.730Z,11.57
2018-06-25T07:56:04.058Z,12.80
2018-06-25T07:58:33.146Z,11.17
2018-06-25T08:01:01.585Z,10.70
2018-06-25T08:03:29.908Z,12.33
2018-06-25T08:05:58.225Z,10.53
2018-06-25T08:08:26.793Z,13.30
2018-06-25T08:10:55.193Z,10.43
2018-06-25T08:13:23.764Z,9.70
2018-06-25T08:15:52.063Z,11.80
2018-06-25T08:18:20.366Z,11.60
2018-06-25T08:20:48.654Z,12.50
2018-06-25T08:23:16.988Z,11.37
2018-06-25T08:25:45.309Z,10.80
2018-06-25T08:28:13.660Z,11.33
2018-06-25T08:30:41.992Z,11.30
2018-06-25T08:33:10.379Z,11.73
2018-06-25T08:35:38.648Z,11.83
2018-06-25T08:38:07.443Z,12.40
2018-06-25T08:40:35.738Z,17.73
2018-06-25T08:43:04.067Z,11.33
2018-06-25T08:45:32.348Z,12.43
2018-06-25T08:48:00.754Z,11.07
2018-06-25T08:50:29.050Z,10.07
2018-06-25T08:52:57.426Z,9.23
2018-06-25T08:55:25.707Z,10.47
2018-06-25T08:57:54.023Z,11.10
2018-06-25T09:00:22.420Z,11.17
2018-06-25T09:02:50.738Z,12.50
2018-06-25T09:05:19.044Z,12.37
2018-06-25T09:07:47.341Z,14.47
2018-06-25T09:10:15.607Z,9.97
2018-06-25T09:12:43.915Z,10.20
2018-06-25T09:15:12.236Z,11.10
2018-06-25T09:17:40.498Z,9.73
2018-06-25T09:20:08.932Z,7.83
2018-06-25T09:22:37.240Z,8.20
2018-06-25T09:25:05.595Z,6.97
2018-06-25T09:27:39.115Z,8.50
2018-06-25T09:30:07.446Z,6.60
2018-06-25T09:32:35.790Z,7.63
2018-06-25T09:35:04.103Z,8.70
2018-06-25T09:37:32.418Z,7.70
2018-06-25T09:40:00.711Z,8.10
2018-06-25T09:42:29.079Z,8.37
2018-06-25T09:44:57.402Z,6.63
2018-06-25T09:47:25.715Z,7.60
2018-06-25T09:49:54.014Z,7.47
2018-06-25T09:52:22.290Z,7.07
2018-06-25T09:54:50.726Z,7.80
2018-06-25T09:57:19.042Z,6.67
2018-06-25T09:59:47.352Z,6.57
2018-06-25T10:02:16.166Z,5.97
2018-06-25T10:04:44.484Z,6.33
2018-06-25T10:07:12.766Z,6.63
2018-06-25T10:09:41.151Z,7.07
2018-06-25T10:12:09.683Z,6.93
2018-06-25T10:14:38.622Z,7.33
2018-06-25T10:17:06.983Z,6.20
2018-06-25T10:19:35.300Z,6.13
2018-06-25T10:22:03.883Z,5.63
2018-06-25T10:24:32.222Z,7.30
2018-06-25T10:27:00.506Z,6.40
2018-06-25T10:29:28.899Z,6.57
2018-06-25T10:31:57.182Z,6.50
2018-06-25T10:34:25.592Z,6.83
2018-06-25T10:36:53.933Z,7.13
2018-06-25T10:39:22.275Z,6.23
2018-06-25T10:41:50.576Z,7.27
2018-06-25T10:44:19.249Z,15.10
2018-06-25T10:46:47.566Z,23.27
2018-06-25T10:49:15.898Z,8.90
2018-06-25T10:51:44.199Z,8.60
2018-06-25T10:54:12.564Z,11.33
2018-06-25T10:56:41.002Z,5.43
2018-06-25T10:59:09.378Z,7.67
2018-06-25T11:01:37.696Z,8.60
2018-06-25T11:04:06.060Z,6.87
2018-06-25T11:06:34.345Z,8.87
2018-06-25T11:09:02.675Z,7.20
2018-06-25T11:11:30.950Z,7.67
2018-06-25T11:13:59.283Z,6.87
2018-06-25T11:16:27.658Z,5.70
2018-06-25T11:18:56.134Z,7.10
2018-06-25T11:21:24.471Z,5.40
2018-06-25T11:23:52.838Z,7.40
2018-06-25T11:26:21.125Z,5.80
2018-06-25T11:28:49.462Z,6.73
2018-06-25T11:31:17.869Z,8.03
2018-06-25T11:33:46.151Z,5.33
2018-06-25T11:36:14.445Z,7.23
2018-06-25T11:38:42.798Z,6.37
2018-06-25T11:41:11.097Z,8.53
2018-06-25T11:43:39.409Z,6.57
2018-06-25T11:46:07.730Z,6.70
2018-06-25T11:48:36.009Z,7.53
2018-06-25T11:51:04.350Z,6.13
2018-06-25T11:53:32.646Z,6.13
2018-06-25T11:56:00.977Z,5.70
2018-06-25T11:58:29.270Z,6.87
2018-06-25T12:00:57.790Z,7.30
2018-06-25T12:03:26.268Z,6.87
2018-06-25T12:05:54.557Z,6.80
2018-06-25T12:08:22.909Z,6.93
2018-06-25T12:10:51.234Z,6.93
2018-06-25T12:13:19.505Z,8.10
2018-06-25T12:15:47.913Z,7.80
2018-06-25T12:18:16.278Z,7.13
2018-06-25T12:20:44.610Z,8.77
2018-06-25T12:23:13.302Z,6.33
2018-06-25T12:25:41.666Z,6.17
2018-06-25T12:28:09.959Z,9.10
2018-06-25T12:30:38.451Z,9.03
2018-06-25T12:33:07.498Z,6.23
2018-06-25T12:35:36.127Z,6.17
2018-06-25T12:38:04.807Z,13.03
2018-06-25T12:40:33.181Z,6.40
2018-06-25T12:43:01.554Z,7.70
2018-06-25T12:45:30.057Z,7.90
2018-06-25T12:47:58.388Z,4.90
2018-06-25T12:50:26.693Z,7.30
2018-06-25T12:52:54.994Z,4.83
2018-06-25T12:55:23.442Z,4.77
2018-06-25T12:57:51.726Z,5.77
2018-06-25T13:00:20.078Z,4.67
2018-06-25T13:02:48.542Z,4.97
2018-06-25T13:05:17.143Z,4.17
2018-06-25T13:07:45.438Z,5.40
2018-06-25T13:10:13.802Z,5.23
2018-06-25T13:12:42.170Z,4.80
2018-06-25T13:15:10.626Z,7.90
2018-06-25T13:17:38.986Z,5.47
2018-06-25T13:20:07.489Z,4.07
2018-06-25T13:22:36.014Z,4.37
2018-06-25T13:25:04.847Z,5.57
2018-06-25T13:27:33.180Z,4.87
2018-06-25T13:30:01.495Z,5.60
2018-06-25T13:32:29.762Z,5.90
2018-06-25T13:34:58.261Z,4.67
2018-06-25T13:37:26.590Z,5.47
2018-06-25T13:39:54.885Z,8.60
2018-06-25T13:42:23.198Z,5.17
2018-06-25T13:44:51.494Z,5.83
2018-06-25T13:47:19.805Z,4.60
2018-06-25T13:49:48.190Z,4.60
2018-06-25T13:52:16.530Z,4.73
2018-06-25T13:54:44.887Z,5.73
2018-06-25T13:57:13.184Z,5.47
2018-06-25T13:59:41.605Z,5.60
2018-06-25T14:02:10.106Z,5.00
2018-06-25T14:04:38.655Z,5.60
2018-06-25T14:07:06.966Z,7.27
2018-06-25T14:09:35.254Z,5.57
2018-06-25T14:12:03.626Z,5.60
2018-06-25T14:16:55.170Z,7.67
2018-06-25T14:19:23.468Z,8.10
2018-06-25T14:21:51.817Z,8.47
2018-06-25T14:24:25.687Z,9.47
2018-06-25T14:26:58.160Z,8.13
2018-06-25T14:29:31.444Z,9.57
2018-06-25T14:32:05.655Z,15.23
2018-06-25T14:34:33.993Z,12.23
2018-06-25T14:37:02.353Z,10.30
2018-06-25T14:39:30.666Z,7.83
2018-06-25T14:41:59.031Z,19.33
2018-06-25T14:44:27.489Z,15.43
2018-06-25T14:46:56.153Z,32.60
2018-06-25T14:49:24.438Z,9.37
2018-06-25T14:51:52.755Z,9.33
2018-06-25T14:54:21.118Z,11.60
2018-06-25T14:56:49.456Z,12.67
2018-06-25T14:59:17.767Z,9.63
2018-06-25T15:01:46.360Z,10.77
2018-06-25T15:04:14.693Z,8.70
2018-06-25T15:06:43.006Z,9.53
2018-06-25T15:09:12.459Z,11.17
2018-06-25T15:11:40.834Z,8.83
2018-06-25T15:14:09.111Z,9.80
2018-06-25T15:16:37.515Z,13.07
2018-06-25T15:19:05.890Z,13.30
2018-06-25T15:21:34.263Z,10.33
2018-06-25T15:24:02.601Z,11.30
2018-06-25T15:26:30.947Z,8.17
2018-06-25T15:28:59.227Z,9.23
2018-06-25T15:31:27.802Z,8.30
2018-06-25T15:33:56.235Z,7.90
2018-06-25T15:36:24.550Z,8.87
2018-06-25T15:38:52.898Z,9.67
2018-06-25T15:41:21.275Z,12.00
2018-06-25T15:43:49.579Z,10.53
2018-06-25T15:46:18.047Z,6.50
2018-06-25T15:48:46.358Z,9.00
2018-06-25T15:51:14.638Z,8.73
2018-06-25T15:53:43.005Z,9.47
2018-06-25T15:56:11.275Z,8.37
2018-06-25T15:58:40.053Z,8.37
2018-06-25T16:01:08.338Z,9.57
2018-06-25T16:03:36.709Z,8.43
2018-06-25T16:06:05.191Z,9.37
2018-06-25T16:08:33.534Z,8.83
2018-06-25T16:11:01.841Z,10.37
2018-06-25T16:13:30.221Z,8.63
2018-06-25T16:15:58.547Z,7.67
2018-06-25T16:18:26.953Z,8.03
2018-06-25T16:20:55.234Z,7.83
2018-06-25T16:23:23.594Z,9.20
2018-06-25T16:25:51.943Z,8.23
2018-06-25T16:28:20.309Z,8.80
2018-06-25T16:30:48.592Z,8.27
2018-06-25T16:33:16.913Z,10.37
2018-06-25T16:35:45.229Z,9.33
2018-06-25T16:38:13.610Z,12.43
2018-06-25T16:40:42.184Z,10.13
2018-06-25T16:43:10.742Z,8.07
2018-06-25T16:45:39.136Z,7.23
2018-06-25T16:48:07.739Z,7.30
2018-06-25T16:50:36.721Z,12.20
2018-06-25T16:53:05.071Z,10.50
2018-06-25T16:55:33.441Z,9.43
2018-06-25T16:58:01.986Z,9.07
2018-06-25T17:00:30.372Z,9.87
2018-06-25T17:02:58.753Z,10.70
2018-06-25T17:05:27.424Z,9.93
2018-06-25T17:07:55.873Z,12.63
2018-06-25T17:10:24.261Z,6.50
2018-06-25T17:12:52.661Z,11.97
2018-06-25T17:15:20.995Z,12.17
2018-06-25T17:17:49.360Z,8.80
2018-06-25T17:20:17.711Z,8.50
2018-06-25T17:22:46.130Z,9.33
2018-06-25T17:25:17.620Z,7.57
2018-06-25T17:27:47.556Z,10.17
2018-06-25T17:30:17.494Z,8.30
2018-06-25T17:32:45.956Z,13.33
2018-06-25T17:35:15.462Z,13.30
2018-06-25T17:37:46.379Z,11.07
2018-06-25T17:40:16.448Z,9.60
2018-06-25T17:42:55.714Z,8.07
2018-06-25T17:45:24.124Z,9.40
2018-06-25T17:47:55.797Z,11.43
2018-06-25T17:50:24.481Z,9.30
2018-06-25T17:52:55.400Z,12.87
2018-06-25T17:55:26.703Z,8.63
2018-06-25T17:57:55.058Z,7.87
2018-06-25T18:00:23.398Z,10.13
2018-06-25T18:02:51.744Z,8.23
2018-06-25T18:05:20.255Z,9.57
2018-06-25T18:07:48.582Z,8.37
2018-06-25T18:10:16.892Z,10.07
2018-06-25T18:12:45.343Z,6.47
2018-06-25T18:15:14.774Z,7.87
2018-06-25T18:17:43.101Z,12.97
2018-06-25T18:20:11.558Z,8.83
2018-06-25T18:22:39.874Z,12.07
2018-06-25T18:25:08.407Z,8.07
2018-06-25T18:27:36.729Z,11.30
2018-06-25T18:30:05.638Z,10.27
2018-06-25T18:32:33.930Z,9.17
2018-06-25T18:35:02.252Z,8.47
2018-06-25T18:37:30.534Z,8.10
2018-06-25T18:39:59.119Z,9.33
2018-06-25T18:42:27.610Z,8.47
2018-06-25T18:44:55.950Z,7.20
2018-06-25T18:47:24.247Z,9.57
2018-06-25T18:49:52.598Z,9.67
2018-06-25T18:52:21.092Z,8.93
2018-06-25T18:54:49.408Z,7.40
2018-06-25T18:57:17.887Z,7.03
2018-06-25T18:59:46.187Z,8.90
2018-06-25T19:02:14.492Z,7.37
2018-06-25T19:04:42.841Z,7.03
2018-06-25T19:07:11.230Z,9.87
2018-06-25T19:09:39.530Z,7.63
2018-06-25T19:12:08.486Z,9.00
2018-06-25T19:14:36.885Z,7.17
2018-06-25T19:17:06.135Z,13.23
2018-06-25T19:19:34.438Z,11.13
2018-06-25T19:22:02.728Z,7.57
2018-06-25T19:24:31.086Z,7.37
2018-06-25T19:26:59.882Z,6.87
2018-06-25T19:29:28.265Z,9.63
2018-06-25T19:31:56.908Z,6.87
2018-06-25T19:34:25.906Z,8.23
2018-06-25T19:36:54.754Z,6.43
2018-06-25T19:39:23.175Z,8.87
2018-06-25T19:41:51.590Z,8.17
2018-06-25T19:44:20.228Z,7.93
2018-06-25T19:46:48.845Z,9.60
2018-06-25T19:49:19.950Z,10.30
2018-06-25T19:51:49.474Z,6.47
2018-06-25T19:54:18.299Z,10.40
2018-06-25T19:56:46.633Z,9.83
2018-06-25T19:59:15.618Z,12.07
2018-06-25T20:01:44.647Z,38.77
2018-06-25T20:04:13.069Z,28.57
2018-06-25T20:06:41.403Z,15.87
2018-06-25T20:09:12.779Z,17.10
2018-06-25T20:11:41.616Z,53.27
2018-06-25T20:14:10.125Z,54.40
2018-06-25T20:16:38.627Z,79.63
2018-06-25T20:19:06.958Z,20.73
2018-06-25T20:21:35.968Z,28.30
2018-06-25T20:24:04.475Z,91.23
2018-06-25T20:26:32.783Z,40.10
2018-06-25T20:29:01.622Z,68.83
2018-06-25T20:31:29.966Z,26.97
2018-06-25T20:33:58.918Z,33.77
2018-06-25T20:36:27.234Z,27.63
2018-06-25T20:38:55.510Z,24.47
2018-06-25T20:41:24.646Z,28.20
2018-06-25T20:43:52.933Z,15.77
2018-06-25T20:46:21.253Z,24.33
2018-06-25T20:48:49.543Z,14.17
2018-06-25T20:51:17.865Z,17.50
2018-06-25T20:53:46.162Z,27.87
2018-06-25T20:56:14.664Z,20.73
2018-06-25T20:58:42.954Z,22.67
2018-06-25T21:01:11.283Z,11.47
2018-06-25T21:03:39.614Z,23.70
2018-06-25T21:06:08.066Z,15.73
2018-06-25T21:08:36.349Z,14.33
2018-06-25T21:11:04.787Z,14.40
2018-06-25T21:13:33.057Z,7.63
2018-06-25T21:16:01.370Z,8.80
2018-06-25T21:18:29.666Z,9.27
2018-06-25T21:20:57.981Z,7.03
2018-06-25T21:23:26.294Z,9.77
2018-06-25T21:25:54.752Z,11.17
2018-06-25T21:28:23.053Z,10.80
2018-06-25T21:30:51.394Z,10.23
2018-06-25T21:33:19.698Z,23.73
2018-06-25T21:35:48.114Z,22.77
2018-06-25T21:38:16.526Z,11.27
2018-06-25T21:40:44.901Z,10.70
2018-06-25T21:43:13.177Z,11.50
2018-06-25T21:45:41.506Z,13.50
2018-06-25T21:48:09.883Z,16.53
2018-06-25T21:50:38.318Z,8.90
2018-06-25T21:53:06.897Z,20.43
2018-06-25T21:55:35.202Z,33.13
2018-06-25T21:58:03.628Z,9.33
2018-06-25T22:00:43.323Z,9.90
2018-06-25T22:03:11.914Z,10.97
2018-06-25T22:05:40.273Z,12.43
2018-06-25T22:08:08.788Z,10.67
2018-06-25T22:10:37.090Z,10.40
2018-06-25T22:13:05.599Z,15.93
2018-06-25T22:15:33.943Z,13.37
2018-06-25T22:18:02.429Z,14.77
2018-06-25T22:20:30.734Z,13.03
2018-06-25T22:22:59.214Z,10.53
2018-06-25T22:25:27.542Z,14.73
2018-06-25T22:27:56.255Z,12.97
2018-06-25T22:30:24.737Z,14.57
2018-06-25T22:32:53.446Z,14.93
2018-06-25T22:35:21.895Z,15.27
2018-06-25T22:37:50.834Z,15.10
2018-06-25T22:40:19.135Z,14.40
2018-06-25T22:42:47.678Z,14.67
2018-06-25T22:45:15.949Z,17.83
2018-06-25T22:47:44.438Z,14.53
2018-06-25T22:50:12.880Z,15.67
2018-06-25T22:52:41.501Z,14.60
2018-06-25T22:55:09.864Z,18.93
2018-06-25T22:57:38.200Z,15.27
2018-06-25T23:00:06.814Z,12.73
2018-06-25T23:02:35.152Z,18.67
2018-06-25T23:05:03.455Z,18.67
2018-06-25T23:07:31.766Z,18.33
2018-06-25T23:10:00.038Z,17.70
2018-06-25T23:12:28.342Z,16.93
2018-06-25T23:14:56.835Z,14.17
2018-06-25T23:17:25.156Z,18.37
2018-06-25T23:19:53.482Z,20.23
2018-06-25T23:22:21.816Z,15.07
2018-06-25T23:24:50.140Z,14.47
2018-06-25T23:27:18.573Z,19.67
2018-06-25T23:29:46.858Z,16.70
2018-06-25T23:32:15.190Z,18.67
2018-06-25T23:34:43.457Z,20.00
2018-06-25T23:37:11.774Z,19.60
2018-06-25T23:39:40.046Z,17.33
2018-06-25T23:42:08.350Z,14.73
2018-06-25T23:44:36.618Z,16.43
2018-06-25T23:47:04.972Z,18.37
2018-06-25T23:49:33.238Z,16.63
2018-06-25T23:52:01.546Z,23.30
2018-06-25T23:54:29.835Z,19.97
2018-06-25T23:56:58.139Z,26.07
2018-06-25T23:59:26.434Z,23.23
